sensor_id;sensor_type;location;lat;lon;timestamp;pressure;altitude;pressure_sealevel;temperature;humidity
68654;BME280;55636;51.108;13.622;2023-03-26T00:00:38;99285.31;;;8.65;56.30
68654;BME280;55636;51.108;13.622;2023-03-26T00:01:41;99276.22;;;8.64;56.12
68654;BME280;55636;51.108;13.622;2023-03-26T00:02:48;99277.59;;;8.62;55.97
68654;BME280;55636;51.108;13.622;2023-03-26T00:03:52;99276.78;;;8.61;55.94
68654;BME280;55636;51.108;13.622;2023-03-26T00:04:54;99278.69;;;8.61;55.86
68654;BME280;55636;51.108;13.622;2023-03-26T00:06:05;99288.88;;;8.60;55.74
68654;BME280;55636;51.108;13.622;2023-03-26T00:07:11;99286.94;;;8.61;55.65
68654;BME280;55636;51.108;13.622;2023-03-26T00:08:15;99276.78;;;8.61;55.73
68654;BME280;55636;51.108;13.622;2023-03-26T00:09:18;99287.50;;;8.58;55.53
68654;BME280;55636;51.108;13.622;2023-03-26T00:10:20;99286.66;;;8.57;55.61
68654;BME280;55636;51.108;13.622;2023-03-26T00:11:25;99298.53;;;8.58;55.61
68654;BME280;55636;51.108;13.622;2023-03-26T00:12:28;99296.03;;;8.56;55.58
68654;BME280;55636;51.108;13.622;2023-03-26T00:13:31;99300.72;;;8.55;55.48
68654;BME280;55636;51.108;13.622;2023-03-26T00:14:34;99294.66;;;8.53;55.53
68654;BME280;55636;51.108;13.622;2023-03-26T00:15:37;99288.31;;;8.53;55.39
68654;BME280;55636;51.108;13.622;2023-03-26T00:16:39;99296.56;;;8.53;55.52
68654;BME280;55636;51.108;13.622;2023-03-26T00:17:44;99297.66;;;8.52;55.36
68654;BME280;55636;51.108;13.622;2023-03-26T00:18:47;99305.94;;;8.52;55.40
68654;BME280;55636;51.108;13.622;2023-03-26T00:19:50;99285.56;;;8.53;55.32
68654;BME280;55636;51.108;13.622;2023-03-26T00:20:58;99296.56;;;8.53;55.13
68654;BME280;55636;51.108;13.622;2023-03-26T00:22:00;99298.50;;;8.52;55.35
68654;BME280;55636;51.108;13.622;2023-03-26T00:23:04;99301.81;;;8.54;55.17
68654;BME280;55636;51.108;13.622;2023-03-26T00:24:11;99303.16;;;8.52;55.15
68654;BME280;55636;51.108;13.622;2023-03-26T00:25:17;99304.00;;;8.52;55.15
68654;BME280;55636;51.108;13.622;2023-03-26T00:26:21;99300.69;;;8.50;55.13
68654;BME280;55636;51.108;13.622;2023-03-26T00:27:25;99304.00;;;8.52;55.22
68654;BME280;55636;51.108;13.622;2023-03-26T00:28:28;99300.69;;;8.50;55.08
68654;BME280;55636;51.108;13.622;2023-03-26T00:29:31;99297.13;;;8.50;54.99
68654;BME280;55636;51.108;13.622;2023-03-26T00:30:35;99290.81;;;8.49;55.19
68654;BME280;55636;51.108;13.622;2023-03-26T00:31:38;99298.22;;;8.49;55.04
68654;BME280;55636;51.108;13.622;2023-03-26T00:32:41;99302.06;;;8.48;54.91
68654;BME280;55636;51.108;13.622;2023-03-26T00:33:54;99299.59;;;8.46;54.91
68654;BME280;55636;51.108;13.622;2023-03-26T00:34:57;99287.78;;;8.46;54.86
68654;BME280;55636;51.108;13.622;2023-03-26T00:35:59;99309.78;;;8.46;54.93
68654;BME280;55636;51.108;13.622;2023-03-26T00:37:05;99290.81;;;8.44;54.68
68654;BME280;55636;51.108;13.622;2023-03-26T00:38:09;99299.59;;;8.46;54.78
68654;BME280;55636;51.108;13.622;2023-03-26T00:39:11;99291.63;;;8.45;54.69
68654;BME280;55636;51.108;13.622;2023-03-26T00:40:15;99289.13;;;8.43;54.83
68654;BME280;55636;51.108;13.622;2023-03-26T00:41:19;99295.47;;;8.44;54.65
68654;BME280;55636;51.108;13.622;2023-03-26T00:42:28;99299.88;;;8.45;54.66
68654;BME280;55636;51.108;13.622;2023-03-26T00:43:32;99296.56;;;8.43;54.82
68654;BME280;55636;51.108;13.622;2023-03-26T00:44:35;99287.19;;;8.44;54.82
68654;BME280;55636;51.108;13.622;2023-03-26T00:45:38;99295.47;;;8.44;54.64
68654;BME280;55636;51.108;13.622;2023-03-26T00:46:41;99301.81;;;8.44;54.70
68654;BME280;55636;51.108;13.622;2023-03-26T00:47:44;99291.03;;;8.43;54.67
68654;BME280;55636;51.108;13.622;2023-03-26T00:48:46;99294.91;;;8.42;54.66
68654;BME280;55636;51.108;13.622;2023-03-26T00:49:52;99294.91;;;8.42;54.84
68654;BME280;55636;51.108;13.622;2023-03-26T00:50:55;99282.78;;;8.43;54.61
68654;BME280;55636;51.108;13.622;2023-03-26T00:51:58;99286.66;;;8.42;54.54
68654;BME280;55636;51.108;13.622;2023-03-26T00:53:00;99294.91;;;8.42;54.54
68654;BME280;55636;51.108;13.622;2023-03-26T00:54:04;99290.22;;;8.42;54.67
68654;BME280;55636;51.108;13.622;2023-03-26T00:55:08;99294.66;;;8.43;54.80
68654;BME280;55636;51.108;13.622;2023-03-26T00:56:11;99302.34;;;8.41;54.69
68654;BME280;55636;51.108;13.622;2023-03-26T00:57:14;99295.75;;;8.42;54.79
68654;BME280;55636;51.108;13.622;2023-03-26T00:58:26;99294.06;;;8.41;55.11
68654;BME280;55636;51.108;13.622;2023-03-26T00:59:29;99295.16;;;8.40;55.28
68654;BME280;55636;51.108;13.622;2023-03-26T01:00:34;99295.16;;;8.40;55.41
68654;BME280;55636;51.108;13.622;2023-03-26T01:01:37;99286.66;;;8.42;55.32
68654;BME280;55636;51.108;13.622;2023-03-26T01:02:41;99286.66;;;8.42;55.54
68654;BME280;55636;51.108;13.622;2023-03-26T01:03:46;99282.78;;;8.43;55.44
68654;BME280;55636;51.108;13.622;2023-03-26T01:06:44;99294.66;;;8.43;55.82
68654;BME280;55636;51.108;13.622;2023-03-26T01:07:46;99281.69;;;8.44;55.75
68654;BME280;55636;51.108;13.622;2023-03-26T01:08:49;99294.38;;;8.45;55.66
68654;BME280;55636;51.108;13.622;2023-03-26T01:09:53;99293.28;;;8.46;55.74
68654;BME280;55636;51.108;13.622;2023-03-26T01:10:57;99294.94;;;8.47;55.58
68654;BME280;55636;51.108;13.622;2023-03-26T01:12:08;99301.25;;;8.47;55.77
68654;BME280;55636;51.108;13.622;2023-03-26T01:13:11;99293.00;;;8.47;55.90
68654;BME280;55636;51.108;13.622;2023-03-26T01:14:21;99299.31;;;8.48;56.27
68654;BME280;55636;51.108;13.622;2023-03-26T01:15:27;99297.41;;;8.48;56.36
68654;BME280;55636;51.108;13.622;2023-03-26T01:16:52;99302.91;;;8.48;56.42
68654;BME280;55636;51.108;13.622;2023-03-26T01:17:56;99300.16;;;8.48;56.55
68654;BME280;55636;51.108;13.622;2023-03-26T01:18:59;99303.72;;;8.49;56.60
68654;BME280;55636;51.108;13.622;2023-03-26T01:20:16;99304.56;;;8.49;56.99
68654;BME280;55636;51.108;13.622;2023-03-26T01:21:22;99299.88;;;8.50;57.05
68654;BME280;55636;51.108;13.622;2023-03-26T01:22:29;99305.38;;;8.50;57.37
68654;BME280;55636;51.108;13.622;2023-03-26T01:23:43;99298.78;;;8.51;57.28
68654;BME280;55636;51.108;13.622;2023-03-26T01:24:48;99297.13;;;8.50;57.23
68654;BME280;55636;51.108;13.622;2023-03-26T01:27:41;99299.88;;;8.50;57.43
68654;BME280;55636;51.108;13.622;2023-03-26T01:28:45;99306.19;;;8.50;57.67
68654;BME280;55636;51.108;13.622;2023-03-26T01:30:16;99308.13;;;8.50;57.68
68654;BME280;55636;51.108;13.622;2023-03-26T01:32:41;99297.41;;;8.48;57.66
68654;BME280;55636;51.108;13.622;2023-03-26T01:33:57;99308.94;;;8.50;57.84
68654;BME280;55636;51.108;13.622;2023-03-26T01:36:34;99302.06;;;8.48;57.72
68654;BME280;55636;51.108;13.622;2023-03-26T01:38:06;99309.50;;;8.47;57.77
68654;BME280;55636;51.108;13.622;2023-03-26T01:39:40;99297.94;;;8.45;57.71
68654;BME280;55636;51.108;13.622;2023-03-26T01:42:15;99297.41;;;8.43;57.82
68654;BME280;55636;51.108;13.622;2023-03-26T01:44:40;99302.91;;;8.43;57.61
68654;BME280;55636;51.108;13.622;2023-03-26T01:45:46;99290.22;;;8.42;57.56
68654;BME280;55636;51.108;13.622;2023-03-26T01:46:51;99298.50;;;8.42;57.69
68654;BME280;55636;51.108;13.622;2023-03-26T01:47:55;99290.50;;;8.41;57.46
68654;BME280;55636;51.108;13.622;2023-03-26T01:48:58;99299.03;;;8.39;57.57
68654;BME280;55636;51.108;13.622;2023-03-26T01:50:02;99289.94;;;8.38;57.48
68654;BME280;55636;51.108;13.622;2023-03-26T01:51:06;99297.38;;;8.38;57.46
68654;BME280;55636;51.108;13.622;2023-03-26T01:52:16;99298.19;;;8.38;57.38
68654;BME280;55636;51.108;13.622;2023-03-26T01:53:21;99293.25;;;8.35;57.29
68654;BME280;55636;51.108;13.622;2023-03-26T01:54:27;99299.56;;;8.36;57.13
68654;BME280;55636;51.108;13.622;2023-03-26T01:56:54;99291.31;;;8.36;56.92
68654;BME280;55636;51.108;13.622;2023-03-26T01:58:10;99297.91;;;8.35;57.06
68654;BME280;55636;51.108;13.622;2023-03-26T02:00:50;99290.78;;;8.34;56.75
68654;BME280;55636;51.108;13.622;2023-03-26T02:02:08;99296.28;;;8.34;56.88
68654;BME280;55636;51.108;13.622;2023-03-26T02:03:21;99281.69;;;8.33;56.81
68654;BME280;55636;51.108;13.622;2023-03-26T02:04:40;99286.63;;;8.31;56.77
68654;BME280;55636;51.108;13.622;2023-03-26T02:06:56;99286.38;;;8.33;56.72
68654;BME280;55636;51.108;13.622;2023-03-26T02:07:53;99284.97;;;8.30;56.63
68654;BME280;55636;51.108;13.622;2023-03-26T02:09:06;99294.31;;;8.29;56.85
68654;BME280;55636;51.108;13.622;2023-03-26T02:10:14;99287.16;;;8.28;56.64
68654;BME280;55636;51.108;13.622;2023-03-26T02:11:19;99286.63;;;8.26;56.72
68654;BME280;55636;51.108;13.622;2023-03-26T02:12:24;99283.88;;;8.26;56.77
68654;BME280;55636;51.108;13.622;2023-03-26T02:13:28;99290.47;;;8.25;56.76
68654;BME280;55636;51.108;13.622;2023-03-26T02:14:31;99289.91;;;8.23;56.89
68654;BME280;55636;51.108;13.622;2023-03-26T02:15:33;99286.06;;;8.24;56.83
68654;BME280;55636;51.108;13.622;2023-03-26T02:16:36;99282.78;;;8.22;56.89
68654;BME280;55636;51.108;13.622;2023-03-26T02:17:40;99292.94;;;8.21;56.95
68654;BME280;55636;51.108;13.622;2023-03-26T02:18:44;99287.72;;;8.20;56.99
68654;BME280;55636;51.108;13.622;2023-03-26T02:19:50;99285.22;;;8.18;56.91
68654;BME280;55636;51.108;13.622;2023-03-26T02:20:52;99287.13;;;8.18;56.98
68654;BME280;55636;51.108;13.622;2023-03-26T02:21:55;99284.66;;;8.16;56.82
68654;BME280;55636;51.108;13.622;2023-03-26T02:23:03;99282.19;;;8.15;56.87
68654;BME280;55636;51.108;13.622;2023-03-26T02:24:06;99283.84;;;8.16;57.00
68654;BME280;55636;51.108;13.622;2023-03-26T02:25:13;99283.00;;;8.15;57.02
68654;BME280;55636;51.108;13.622;2023-03-26T02:26:18;99289.63;;;8.14;57.14
68654;BME280;55636;51.108;13.622;2023-03-26T02:27:29;99287.69;;;8.15;57.25
68654;BME280;55636;51.108;13.622;2023-03-26T02:28:32;99298.97;;;8.13;57.31
68654;BME280;55636;51.108;13.622;2023-03-26T02:29:35;99298.13;;;8.13;57.11
68654;BME280;55636;51.108;13.622;2023-03-26T02:30:42;99293.75;;;8.12;57.39
68654;BME280;55636;51.108;13.622;2023-03-26T02:31:47;99293.75;;;8.12;57.29
68654;BME280;55636;51.108;13.622;2023-03-26T02:32:53;99292.09;;;8.11;57.32
68654;BME280;55636;51.108;13.622;2023-03-26T02:33:57;99288.50;;;8.10;57.31
68654;BME280;55636;51.108;13.622;2023-03-26T02:35:02;99283.25;;;8.09;57.48
68654;BME280;55636;51.108;13.622;2023-03-26T02:36:05;99284.34;;;8.08;57.43
68654;BME280;55636;51.108;13.622;2023-03-26T02:37:10;99291.50;;;8.09;57.39
68654;BME280;55636;51.108;13.622;2023-03-26T02:38:15;99292.59;;;8.08;57.42
68654;BME280;55636;51.108;13.622;2023-03-26T02:39:20;99274.47;;;8.07;57.46
68654;BME280;55636;51.108;13.622;2023-03-26T02:40:29;99293.72;;;8.07;57.64
68654;BME280;55636;51.108;13.622;2023-03-26T02:41:32;99286.28;;;8.07;57.67
68654;BME280;55636;51.108;13.622;2023-03-26T02:42:38;99286.84;;;8.04;57.56
68654;BME280;55636;51.108;13.622;2023-03-26T02:43:40;99282.97;;;8.05;57.49
68654;BME280;55636;51.108;13.622;2023-03-26T02:44:47;99284.91;;;8.04;57.80
68654;BME280;55636;51.108;13.622;2023-03-26T02:45:52;99279.69;;;8.03;57.75
68654;BME280;55636;51.108;13.622;2023-03-26T02:47:20;99287.34;;;8.01;57.90
68654;BME280;55636;51.108;13.622;2023-03-26T02:48:26;99287.94;;;8.03;57.99
68654;BME280;55636;51.108;13.622;2023-03-26T02:49:54;99298.38;;;8.01;57.92
68654;BME280;55636;51.108;13.622;2023-03-26T02:51:03;99284.38;;;8.02;57.88
68654;BME280;55636;51.108;13.622;2023-03-26T02:52:11;99295.38;;;8.02;57.92
68654;BME280;55636;51.108;13.622;2023-03-26T02:53:16;99302.50;;;8.03;57.89
68654;BME280;55636;51.108;13.622;2023-03-26T02:54:24;99294.53;;;8.02;58.04
68654;BME280;55636;51.108;13.622;2023-03-26T02:55:36;99296.19;;;8.03;57.96
68654;BME280;55636;51.108;13.622;2023-03-26T02:56:39;99293.72;;;8.01;58.01
68654;BME280;55636;51.108;13.622;2023-03-26T02:57:57;99292.84;;;8.01;58.38
68654;BME280;55636;51.108;13.622;2023-03-26T02:59:06;99287.34;;;8.01;58.41
68654;BME280;55636;51.108;13.622;2023-03-26T03:00:09;99287.34;;;8.01;58.49
68654;BME280;55636;51.108;13.622;2023-03-26T03:01:20;99293.97;;;8.00;58.62
68654;BME280;55636;51.108;13.622;2023-03-26T03:02:34;99284.59;;;8.01;58.66
68654;BME280;55636;51.108;13.622;2023-03-26T03:03:58;99290.09;;;8.01;58.71
68654;BME280;55636;51.108;13.622;2023-03-26T03:05:09;99286.53;;;8.00;58.64
68654;BME280;55636;51.108;13.622;2023-03-26T03:06:15;99282.69;;;8.01;58.65
68654;BME280;55636;51.108;13.622;2023-03-26T03:07:28;99288.22;;;8.01;58.43
68654;BME280;55636;51.108;13.622;2023-03-26T03:08:42;99284.59;;;8.01;58.89
68654;BME280;55636;51.108;13.622;2023-03-26T03:10:13;99288.22;;;8.01;58.49
68654;BME280;55636;51.108;13.622;2023-03-26T03:11:47;99293.72;;;8.01;58.67
68654;BME280;55636;51.108;13.622;2023-03-26T03:12:50;99289.28;;;8.00;58.67
68654;BME280;55636;51.108;13.622;2023-03-26T03:13:54;99287.34;;;8.01;58.81
68654;BME280;55636;51.108;13.622;2023-03-26T03:14:59;99286.53;;;8.00;58.70
68654;BME280;55636;51.108;13.622;2023-03-26T03:16:02;99286.81;;;7.99;58.84
68654;BME280;55636;51.108;13.622;2023-03-26T03:17:05;99283.22;;;7.98;58.73
68654;BME280;55636;51.108;13.622;2023-03-26T03:18:07;99283.22;;;7.98;58.71
68654;BME280;55636;51.108;13.622;2023-03-26T03:19:10;99272.22;;;7.98;58.85
68654;BME280;55636;51.108;13.622;2023-03-26T03:20:13;99284.06;;;7.99;58.72
68654;BME280;55636;51.108;13.622;2023-03-26T03:21:16;99277.72;;;7.98;58.87
68654;BME280;55636;51.108;13.622;2023-03-26T03:22:18;99279.94;;;7.96;59.04
68654;BME280;55636;51.108;13.622;2023-03-26T03:23:23;99288.72;;;7.98;59.02
68654;BME280;55636;51.108;13.622;2023-03-26T03:24:31;99279.94;;;7.96;59.07
68654;BME280;55636;51.108;13.622;2023-03-26T03:25:35;99285.97;;;7.98;59.11
68654;BME280;55636;51.108;13.622;2023-03-26T03:26:39;99285.16;;;7.98;59.00
68654;BME280;55636;51.108;13.622;2023-03-26T03:28:02;99287.91;;;7.98;58.97
68654;BME280;55636;51.108;13.622;2023-03-26T03:29:05;99281.31;;;7.99;59.07
68654;BME280;55636;51.108;13.622;2023-03-26T03:30:12;99280.47;;;7.98;59.09
68654;BME280;55636;51.108;13.622;2023-03-26T03:31:20;99287.63;;;7.99;59.02
68654;BME280;55636;51.108;13.622;2023-03-26T03:32:23;99284.88;;;7.99;58.88
68654;BME280;55636;51.108;13.622;2023-03-26T03:33:30;99277.72;;;7.98;59.10
68654;BME280;55636;51.108;13.622;2023-03-26T03:34:32;99277.47;;;8.00;59.01
68654;BME280;55636;51.108;13.622;2023-03-26T03:35:35;99284.88;;;7.99;59.18
68654;BME280;55636;51.108;13.622;2023-03-26T03:36:38;99281.31;;;7.99;59.04
68654;BME280;55636;51.108;13.622;2023-03-26T03:37:59;99280.47;;;7.98;59.16
68654;BME280;55636;51.108;13.622;2023-03-26T03:39:05;99277.72;;;7.98;59.03
68654;BME280;55636;51.108;13.622;2023-03-26T03:40:10;99276.91;;;7.98;59.00
68654;BME280;55636;51.108;13.622;2023-03-26T03:41:13;99280.47;;;7.98;58.83
68654;BME280;55636;51.108;13.622;2023-03-26T03:42:18;99281.59;;;7.97;58.92
68654;BME280;55636;51.108;13.622;2023-03-26T03:43:23;99276.91;;;7.98;59.00
68654;BME280;55636;51.108;13.622;2023-03-26T03:44:51;99278.00;;;7.97;58.89
68654;BME280;55636;51.108;13.622;2023-03-26T03:46:17;99279.09;;;7.96;58.72
68654;BME280;55636;51.108;13.622;2023-03-26T03:47:22;99280.75;;;7.97;58.71
68654;BME280;55636;51.108;13.622;2023-03-26T03:48:24;99279.94;;;7.96;58.85
68654;BME280;55636;51.108;13.622;2023-03-26T03:49:27;99271.13;;;7.94;58.99
68654;BME280;55636;51.108;13.622;2023-03-26T03:50:31;99269.22;;;7.95;59.03
68654;BME280;55636;51.108;13.622;2023-03-26T03:51:58;99271.97;;;7.95;58.99
68654;BME280;55636;51.108;13.622;2023-03-26T03:53:11;99270.84;;;7.96;58.94
68654;BME280;55636;51.108;13.622;2023-03-26T03:54:20;99271.13;;;7.94;58.97
68654;BME280;55636;51.108;13.622;2023-03-26T03:55:39;99280.44;;;7.93;59.04
68654;BME280;55636;51.108;13.622;2023-03-26T03:56:43;99268.63;;;7.93;58.97
68654;BME280;55636;51.108;13.622;2023-03-26T03:58:23;99265.88;;;7.93;58.87
68654;BME280;55636;51.108;13.622;2023-03-26T03:59:27;99271.38;;;7.93;58.74
68654;BME280;55636;51.108;13.622;2023-03-26T04:00:30;99265.31;;;7.91;58.74
68654;BME280;55636;51.108;13.622;2023-03-26T04:01:53;99268.91;;;7.91;58.71
68654;BME280;55636;51.108;13.622;2023-03-26T04:03:05;99273.56;;;7.91;58.59
68654;BME280;55636;51.108;13.622;2023-03-26T04:04:08;99273.84;;;7.89;58.54
68654;BME280;55636;51.108;13.622;2023-03-26T04:05:25;99274.69;;;7.89;58.62
68654;BME280;55636;51.108;13.622;2023-03-26T04:06:27;99271.09;;;7.89;58.58
68654;BME280;55636;51.108;13.622;2023-03-26T04:07:31;99276.06;;;7.87;58.53
68654;BME280;55636;51.108;13.622;2023-03-26T04:08:40;99276.06;;;7.87;58.63
68654;BME280;55636;51.108;13.622;2023-03-26T04:09:47;99279.91;;;7.86;58.53
68654;BME280;55636;51.108;13.622;2023-03-26T04:10:52;99272.72;;;7.85;58.50
68654;BME280;55636;51.108;13.622;2023-03-26T04:12:26;99273.81;;;7.84;58.67
68654;BME280;55636;51.108;13.622;2023-03-26T04:13:35;99271.06;;;7.84;58.88
68654;BME280;55636;51.108;13.622;2023-03-26T04:14:57;99271.34;;;7.82;58.72
68654;BME280;55636;51.108;13.622;2023-03-26T04:16:00;99276.03;;;7.82;58.72
68654;BME280;55636;51.108;13.622;2023-03-26T04:17:03;99263.38;;;7.81;58.67
68654;BME280;55636;51.108;13.622;2023-03-26T04:18:09;99269.97;;;7.80;58.74
68654;BME280;55636;51.108;13.622;2023-03-26T04:19:16;99262.81;;;7.79;58.74
68654;BME280;55636;51.108;13.622;2023-03-26T04:20:18;99272.16;;;7.78;58.71
68654;BME280;55636;51.108;13.622;2023-03-26T04:21:22;99268.56;;;7.77;59.07
68654;BME280;55636;51.108;13.622;2023-03-26T04:22:26;99266.69;;;7.78;58.80
68654;BME280;55636;51.108;13.622;2023-03-26T04:23:38;99255.09;;;7.76;59.09
68654;BME280;55636;51.108;13.622;2023-03-26T04:24:51;99255.09;;;7.76;58.82
68654;BME280;55636;51.108;13.622;2023-03-26T04:26:15;99263.63;;;7.74;59.11
68654;BME280;55636;51.108;13.622;2023-03-26T04:27:43;99263.34;;;7.76;58.85
68654;BME280;55636;51.108;13.622;2023-03-26T04:28:53;99266.38;;;7.74;58.88
68654;BME280;55636;51.108;13.622;2023-03-26T04:30:06;99263.63;;;7.74;58.96
68654;BME280;55636;51.108;13.622;2023-03-26T04:31:12;99260.03;;;7.73;59.12
68654;BME280;55636;51.108;13.622;2023-03-26T04:32:25;99261.16;;;7.72;59.10
68654;BME280;55636;51.108;13.622;2023-03-26T04:33:33;99253.72;;;7.73;59.19
68654;BME280;55636;51.108;13.622;2023-03-26T04:34:37;99263.91;;;7.72;59.03
68654;BME280;55636;51.108;13.622;2023-03-26T04:35:46;99260.31;;;7.72;59.13
68654;BME280;55636;51.108;13.622;2023-03-26T04:36:52;99263.91;;;7.72;59.13
68654;BME280;55636;51.108;13.622;2023-03-26T04:38:02;99256.47;;;7.73;59.26
68654;BME280;55636;51.108;13.622;2023-03-26T04:39:11;99259.22;;;7.73;59.21
68654;BME280;55636;51.108;13.622;2023-03-26T04:40:52;99254.53;;;7.73;59.18
68654;BME280;55636;51.108;13.622;2023-03-26T04:42:15;99259.22;;;7.73;59.21
68654;BME280;55636;51.108;13.622;2023-03-26T04:43:38;99253.72;;;7.73;59.22
68654;BME280;55636;51.108;13.622;2023-03-26T04:45:13;99254.28;;;7.75;59.10
68654;BME280;55636;51.108;13.622;2023-03-26T04:46:20;99257.03;;;7.75;59.09
68654;BME280;55636;51.108;13.622;2023-03-26T04:47:35;99255.09;;;7.76;59.21
68654;BME280;55636;51.108;13.622;2023-03-26T04:48:41;99258.66;;;7.76;59.12
68654;BME280;55636;51.108;13.622;2023-03-26T04:49:46;99253.16;;;7.76;59.23
68654;BME280;55636;51.108;13.622;2023-03-26T04:50:49;99253.16;;;7.76;59.16
68654;BME280;55636;51.108;13.622;2023-03-26T04:51:54;99254.00;;;7.77;59.02
68654;BME280;55636;51.108;13.622;2023-03-26T04:53:18;99244.94;;;7.76;58.94
68654;BME280;55636;51.108;13.622;2023-03-26T04:54:43;99254.81;;;7.77;58.92
68654;BME280;55636;51.108;13.622;2023-03-26T04:55:59;99257.84;;;7.76;58.96
68654;BME280;55636;51.108;13.622;2023-03-26T04:57:28;99263.34;;;7.76;58.81
68654;BME280;55636;51.108;13.622;2023-03-26T04:58:43;99262.25;;;7.77;58.67
68654;BME280;55636;51.108;13.622;2023-03-26T04:59:46;99254.00;;;7.77;58.91
68654;BME280;55636;51.108;13.622;2023-03-26T05:00:48;99261.41;;;7.76;59.16
68654;BME280;55636;51.108;13.622;2023-03-26T05:01:52;99254.81;;;7.77;59.03
68654;BME280;55636;51.108;13.622;2023-03-26T05:02:57;99257.31;;;7.79;58.94
68654;BME280;55636;51.108;13.622;2023-03-26T05:04:03;99255.69;;;7.78;58.97
68654;BME280;55636;51.108;13.622;2023-03-26T05:05:07;99253.75;;;7.78;58.93
68654;BME280;55636;51.108;13.622;2023-03-26T05:06:11;99252.94;;;7.78;58.98
68654;BME280;55636;51.108;13.622;2023-03-26T05:07:20;99255.41;;;7.79;59.05
68654;BME280;55636;51.108;13.622;2023-03-26T05:08:30;99249.91;;;7.79;59.00
68654;BME280;55636;51.108;13.622;2023-03-26T05:09:32;99255.41;;;7.79;59.01
68654;BME280;55636;51.108;13.622;2023-03-26T05:10:46;99250.72;;;7.80;59.02
68654;BME280;55636;51.108;13.622;2023-03-26T05:11:58;99260.63;;;7.81;59.12
68654;BME280;55636;51.108;13.622;2023-03-26T05:13:00;99257.06;;;7.80;59.04
68654;BME280;55636;51.108;13.622;2023-03-26T05:14:09;99254.03;;;7.82;59.02
68654;BME280;55636;51.108;13.622;2023-03-26T05:15:13;99256.78;;;7.82;59.11
68654;BME280;55636;51.108;13.622;2023-03-26T05:16:31;99263.09;;;7.82;59.05
68654;BME280;55636;51.108;13.622;2023-03-26T05:17:45;99263.66;;;7.84;59.09
68654;BME280;55636;51.108;13.622;2023-03-26T05:18:57;99258.97;;;7.85;58.91
68654;BME280;55636;51.108;13.622;2023-03-26T05:20:05;99264.47;;;7.85;58.87
68654;BME280;55636;51.108;13.622;2023-03-26T05:21:07;99268.03;;;7.85;58.92
68654;BME280;55636;51.108;13.622;2023-03-26T05:22:12;99264.47;;;7.85;58.75
68654;BME280;55636;51.108;13.622;2023-03-26T05:23:31;99274.41;;;7.86;58.65
68654;BME280;55636;51.108;13.622;2023-03-26T05:24:45;99260.66;;;7.86;58.54
68654;BME280;55636;51.108;13.622;2023-03-26T05:25:48;99266.16;;;7.86;58.60
68654;BME280;55636;51.108;13.622;2023-03-26T05:26:54;99260.66;;;7.86;58.61
68654;BME280;55636;51.108;13.622;2023-03-26T05:27:57;99266.97;;;7.86;58.54
68654;BME280;55636;51.108;13.622;2023-03-26T05:29:09;99268.63;;;7.87;58.47
68654;BME280;55636;51.108;13.622;2023-03-26T05:30:20;99264.78;;;7.88;58.50
68654;BME280;55636;51.108;13.622;2023-03-26T05:31:28;99273.03;;;7.88;58.53
68654;BME280;55636;51.108;13.622;2023-03-26T05:32:35;99263.94;;;7.88;58.57
68654;BME280;55636;51.108;13.622;2023-03-26T05:33:37;99271.38;;;7.87;58.51
68654;BME280;55636;51.108;13.622;2023-03-26T05:34:43;99272.19;;;7.88;58.49
68654;BME280;55636;51.108;13.622;2023-03-26T05:35:46;99271.94;;;7.89;58.43
68654;BME280;55636;51.108;13.622;2023-03-26T05:36:50;99271.09;;;7.89;58.52
68654;BME280;55636;51.108;13.622;2023-03-26T05:38:06;99274.94;;;7.88;58.53
68654;BME280;55636;51.108;13.622;2023-03-26T05:39:08;99267.81;;;7.87;58.55
68654;BME280;55636;51.108;13.622;2023-03-26T05:40:46;99269.19;;;7.89;58.45
68654;BME280;55636;51.108;13.622;2023-03-26T05:41:54;99277.16;;;7.91;58.38
68654;BME280;55636;51.108;13.622;2023-03-26T05:43:03;99270.00;;;7.90;58.46
68654;BME280;55636;51.108;13.622;2023-03-26T05:44:12;99273.56;;;7.91;58.50
68654;BME280;55636;51.108;13.622;2023-03-26T05:45:15;99277.44;;;7.89;58.51
68654;BME280;55636;51.108;13.622;2023-03-26T05:46:17;99283.47;;;7.92;58.43
68654;BME280;55636;51.108;13.622;2023-03-26T05:47:21;99276.06;;;7.92;58.56
68654;BME280;55636;51.108;13.622;2023-03-26T05:48:25;99278.81;;;7.92;58.51
68654;BME280;55636;51.108;13.622;2023-03-26T05:49:28;99279.06;;;7.91;58.37
68654;BME280;55636;51.108;13.622;2023-03-26T05:50:32;99274.94;;;7.93;58.41
68654;BME280;55636;51.108;13.622;2023-03-26T05:51:34;99287.63;;;7.94;58.47
68654;BME280;55636;51.108;13.622;2023-03-26T05:52:59;99281.31;;;7.94;58.54
68654;BME280;55636;51.108;13.622;2023-03-26T05:54:21;99294.22;;;7.98;58.58
68654;BME280;55636;51.108;13.622;2023-03-26T05:55:43;99282.41;;;7.98;58.57
68654;BME280;55636;51.108;13.622;2023-03-26T05:57:06;99281.31;;;7.99;58.55
68654;BME280;55636;51.108;13.622;2023-03-26T05:58:30;99281.03;;;8.00;58.57
68654;BME280;55636;51.108;13.622;2023-03-26T05:59:52;99271.72;;;8.01;58.74
68654;BME280;55636;51.108;13.622;2023-03-26T06:01:13;99279.41;;;8.04;58.53
68654;BME280;55636;51.108;13.622;2023-03-26T06:02:37;99283.53;;;8.07;58.65
68654;BME280;55636;51.108;13.622;2023-03-26T06:04:15;99277.75;;;8.09;58.64
68654;BME280;55636;51.108;13.622;2023-03-26T06:05:41;99279.16;;;8.11;58.61
68654;BME280;55636;51.108;13.622;2023-03-26T06:06:50;99280.25;;;8.15;58.72
68654;BME280;55636;51.108;13.622;2023-03-26T06:07:59;99274.75;;;8.20;58.77
68654;BME280;55636;51.108;13.622;2023-03-26T06:09:10;99277.00;;;8.24;58.69
68654;BME280;55636;51.108;13.622;2023-03-26T06:10:16;99272.88;;;8.26;58.80
68654;BME280;55636;51.108;13.622;2023-03-26T06:11:20;99278.63;;;8.30;58.57
68654;BME280;55636;51.108;13.622;2023-03-26T06:12:22;99279.78;;;8.34;58.32
68654;BME280;55636;51.108;13.622;2023-03-26T06:13:25;99273.72;;;8.37;58.50
68654;BME280;55636;51.108;13.622;2023-03-26T06:14:30;99271.25;;;8.41;58.43
68654;BME280;55636;51.108;13.622;2023-03-26T06:15:46;99278.66;;;8.45;58.35
68654;BME280;55636;51.108;13.622;2023-03-26T06:17:05;99272.63;;;8.48;58.34